createdAt,value
2023-01-27T00:01:16.944Z,3.92
2023-01-27T00:03:43.912Z,3.35
2023-01-27T00:06:13.275Z,3.80
2023-01-27T00:08:40.248Z,3.85
2023-01-27T00:11:39.428Z,3.83
2023-01-27T00:14:06.362Z,3.50
2023-01-27T00:16:33.156Z,4.32
2023-01-27T00:18:59.925Z,3.78
2023-01-27T00:21:45.187Z,3.78
2023-01-27T00:27:00.419Z,3.58
2023-01-27T00:29:27.671Z,3.50
2023-01-27T00:32:12.991Z,3.53
2023-01-27T00:37:08.588Z,3.75
2023-01-27T00:39:35.585Z,3.67
2023-01-27T00:42:02.443Z,3.90
2023-01-27T00:44:29.267Z,4.30
2023-01-27T00:46:56.050Z,3.95
2023-01-27T00:49:22.994Z,4.13
2023-01-27T00:51:50.006Z,4.03
2023-01-27T00:54:17.679Z,3.75
2023-01-27T00:56:45.173Z,3.40
2023-01-27T00:59:12.004Z,4.00
2023-01-27T01:01:39.812Z,4.00
2023-01-27T01:04:06.900Z,3.67
2023-01-27T01:06:33.799Z,3.72
2023-01-27T01:09:00.590Z,3.38
2023-01-27T01:11:27.693Z,3.83
2023-01-27T01:13:56.416Z,3.85
2023-01-27T01:16:25.695Z,3.70
2023-01-27T01:18:52.667Z,3.72
2023-01-27T01:21:19.643Z,3.63
2023-01-27T01:23:46.798Z,3.78
2023-01-27T01:26:16.334Z,4.20
2023-01-27T01:28:45.802Z,3.40
2023-01-27T01:31:18.062Z,3.83
2023-01-27T01:33:45.775Z,4.15
2023-01-27T01:36:20.360Z,3.45
2023-01-27T01:38:48.027Z,3.50
2023-01-27T01:41:21.526Z,3.47
2023-01-27T01:43:49.994Z,3.20
2023-01-27T01:46:18.122Z,3.33
2023-01-27T01:48:56.605Z,3.80
2023-01-27T01:51:41.694Z,3.63
2023-01-27T01:54:22.385Z,4.00
2023-01-27T01:57:23.086Z,3.95
2023-01-27T02:00:03.796Z,4.00
2023-01-27T02:02:31.716Z,3.88
2023-01-27T02:05:06.376Z,4.15
2023-01-27T02:07:59.308Z,4.70
2023-01-27T02:10:26.220Z,4.30
2023-01-27T02:12:53.071Z,4.55
2023-01-27T02:15:21.643Z,4.72
2023-01-27T02:17:49.165Z,4.53
2023-01-27T02:20:22.398Z,5.00
2023-01-27T02:23:27.204Z,5.30
2023-01-27T02:26:21.300Z,4.80
2023-01-27T02:28:59.087Z,5.50
2023-01-27T02:31:26.211Z,5.00
2023-01-27T02:33:59.297Z,4.78
2023-01-27T02:36:28.292Z,5.30
2023-01-27T02:38:57.014Z,5.07
2023-01-27T02:41:37.097Z,5.30
2023-01-27T02:44:04.368Z,5.75
2023-01-27T02:46:31.533Z,5.10
2023-01-27T02:48:59.046Z,5.55
2023-01-27T02:51:26.036Z,5.30
2023-01-27T02:53:52.980Z,5.03
2023-01-27T02:56:19.840Z,5.30
2023-01-27T02:58:46.733Z,5.65
2023-01-27T03:01:13.991Z,5.97
2023-01-27T03:03:58.713Z,6.35
2023-01-27T03:06:26.068Z,6.22
2023-01-27T03:08:52.870Z,5.75
2023-01-27T03:11:39.710Z,6.45
2023-01-27T03:14:08.924Z,6.18
2023-01-27T03:16:54.885Z,6.80
2023-01-27T03:19:22.126Z,5.88
2023-01-27T03:21:51.391Z,6.63
2023-01-27T03:24:19.138Z,6.47
2023-01-27T03:26:46.645Z,6.90
2023-01-27T03:29:31.973Z,6.63
2023-01-27T03:31:59.049Z,6.43
2023-01-27T03:34:26.262Z,7.03
2023-01-27T03:37:11.797Z,6.85
2023-01-27T03:39:57.602Z,7.00
2023-01-27T03:42:42.910Z,7.60
2023-01-27T03:45:29.129Z,7.93
2023-01-27T03:47:55.893Z,7.35
2023-01-27T03:50:37.971Z,7.78
2023-01-27T03:53:06.072Z,7.88
2023-01-27T03:55:35.340Z,7.57
2023-01-27T03:58:19.819Z,8.23
2023-01-27T04:00:57.180Z,8.05
2023-01-27T04:03:45.462Z,7.97
2023-01-27T04:06:34.670Z,7.65
2023-01-27T04:09:02.120Z,8.07
2023-01-27T04:11:48.817Z,8.20
2023-01-27T04:14:17.093Z,9.02
2023-01-27T04:16:44.274Z,9.20
2023-01-27T04:19:12.184Z,9.93
2023-01-27T04:21:39.876Z,8.82
2023-01-27T04:24:17.581Z,9.77
2023-01-27T04:26:45.951Z,10.35
2023-01-27T04:29:14.206Z,9.95
2023-01-27T04:31:41.519Z,11.75
2023-01-27T04:34:10.402Z,9.95
2023-01-27T04:36:37.212Z,10.80
2023-01-27T04:39:04.084Z,11.75
2023-01-27T04:41:30.941Z,10.77
2023-01-27T04:44:01.662Z,12.05
2023-01-27T04:46:28.425Z,12.80
2023-01-27T04:48:55.236Z,12.95
2023-01-27T04:51:22.389Z,12.57
2023-01-27T04:53:49.385Z,13.60
2023-01-27T04:56:29.182Z,12.90
2023-01-27T04:59:00.160Z,12.40
2023-01-27T05:01:27.711Z,12.65
2023-01-27T05:03:55.237Z,13.80
2023-01-27T05:06:22.923Z,13.95
2023-01-27T05:08:50.065Z,12.88
2023-01-27T05:11:17.486Z,13.20
2023-01-27T05:13:45.327Z,13.57
2023-01-27T05:16:21.889Z,14.60
2023-01-27T05:18:50.848Z,13.57
2023-01-27T05:21:22.444Z,11.70
2023-01-27T05:23:50.004Z,13.32
2023-01-27T05:26:27.042Z,14.32
2023-01-27T05:28:57.243Z,14.23
2023-01-27T05:31:28.023Z,13.13
2023-01-27T05:33:56.807Z,15.63
2023-01-27T05:36:25.847Z,13.65
2023-01-27T05:38:54.917Z,17.23
2023-01-27T05:41:22.926Z,16.30
2023-01-27T05:43:55.841Z,17.38
2023-01-27T05:46:29.770Z,16.63
2023-01-27T05:49:00.838Z,12.40
2023-01-27T05:51:32.185Z,16.38
2023-01-27T05:53:59.515Z,16.77
2023-01-27T05:56:26.972Z,16.13
2023-01-27T05:58:55.523Z,16.85
2023-01-27T06:01:31.968Z,17.55
2023-01-27T06:03:59.202Z,17.00
2023-01-27T06:06:28.779Z,18.45
2023-01-27T06:08:55.593Z,16.33
2023-01-27T06:11:24.489Z,17.88
2023-01-27T06:13:52.875Z,17.13
2023-01-27T06:16:22.524Z,17.95
2023-01-27T06:18:50.020Z,18.90
2023-01-27T06:21:18.036Z,19.08
2023-01-27T06:23:44.964Z,18.73
2023-01-27T06:26:16.503Z,19.20
2023-01-27T06:28:44.544Z,20.10
2023-01-27T06:31:18.689Z,20.15
2023-01-27T06:33:45.792Z,15.20
2023-01-27T06:36:17.115Z,21.92
2023-01-27T06:38:45.065Z,20.85
2023-01-27T06:41:12.222Z,22.77
2023-01-27T06:43:39.196Z,20.95
2023-01-27T06:46:06.508Z,22.95
2023-01-27T06:48:33.770Z,23.13
2023-01-27T06:51:00.803Z,22.15
2023-01-27T06:53:27.663Z,22.85
2023-01-27T06:56:01.636Z,22.90
2023-01-27T06:58:29.768Z,17.30
2023-01-27T07:00:57.288Z,22.15
2023-01-27T07:03:25.023Z,22.65
2023-01-27T07:05:53.469Z,23.52
2023-01-27T07:08:20.616Z,21.45
2023-01-27T07:10:47.373Z,21.48
2023-01-27T07:13:15.386Z,23.38
2023-01-27T07:15:42.592Z,22.23
2023-01-27T07:18:12.326Z,21.25
2023-01-27T07:20:39.607Z,20.73
2023-01-27T07:23:06.495Z,22.90
2023-01-27T07:25:35.579Z,23.38
2023-01-27T07:28:03.419Z,23.08
2023-01-27T07:30:31.099Z,22.05
2023-01-27T07:33:10.199Z,23.17
2023-01-27T07:35:38.887Z,23.30
2023-01-27T07:38:07.054Z,21.17
2023-01-27T07:40:34.309Z,20.10
2023-01-27T07:43:02.275Z,22.08
2023-01-27T07:45:30.577Z,22.55
2023-01-27T07:48:03.184Z,23.35
2023-01-27T07:50:30.662Z,22.75
2023-01-27T07:53:02.872Z,22.40
2023-01-27T07:55:30.889Z,22.80
2023-01-27T07:57:58.547Z,23.90
2023-01-27T08:00:25.653Z,25.15
2023-01-27T08:02:54.471Z,22.33
2023-01-27T08:05:23.494Z,22.45
2023-01-27T08:07:52.397Z,24.42
2023-01-27T08:10:19.561Z,24.35
2023-01-27T08:12:47.185Z,24.80
2023-01-27T08:15:15.525Z,24.33
2023-01-27T08:17:43.881Z,23.52
2023-01-27T08:20:12.509Z,23.92
2023-01-27T08:22:39.568Z,25.05
2023-01-27T08:25:07.181Z,24.02
2023-01-27T08:27:33.961Z,23.08
2023-01-27T08:30:00.725Z,22.65
2023-01-27T08:32:27.657Z,22.92
2023-01-27T08:34:55.903Z,28.00
2023-01-27T08:37:22.691Z,25.35
2023-01-27T08:39:49.446Z,24.15
2023-01-27T08:42:18.036Z,23.30
2023-01-27T08:44:45.053Z,21.20
2023-01-27T08:47:11.843Z,23.50
2023-01-27T08:49:38.705Z,23.27
2023-01-27T08:52:05.597Z,21.70
2023-01-27T08:54:32.403Z,22.65
2023-01-27T08:56:59.182Z,21.60
2023-01-27T08:59:26.127Z,22.88
2023-01-27T09:01:52.978Z,21.92
2023-01-27T09:04:22.854Z,26.70
2023-01-27T09:06:50.521Z,32.85
2023-01-27T09:09:17.487Z,27.75
2023-01-27T09:11:45.734Z,28.67
2023-01-27T09:14:13.930Z,30.20
2023-01-27T09:16:40.809Z,26.65
2023-01-27T09:19:07.857Z,23.15
2023-01-27T09:21:34.639Z,22.60
2023-01-27T09:24:01.450Z,21.75
2023-01-27T09:26:28.310Z,22.88
2023-01-27T09:28:55.077Z,23.73
2023-01-27T09:31:22.021Z,21.92
2023-01-27T09:33:49.261Z,21.42
2023-01-27T09:36:21.528Z,19.70
2023-01-27T09:38:55.852Z,19.20
2023-01-27T09:41:37.694Z,19.45
2023-01-27T09:44:12.205Z,18.73
2023-01-27T09:47:46.492Z,18.38
2023-01-27T09:50:45.596Z,16.63
2023-01-27T09:53:51.794Z,17.15
2023-01-27T09:56:54.015Z,16.50
2023-01-27T09:59:57.367Z,14.93
2023-01-27T10:02:52.542Z,16.00
2023-01-27T10:05:47.478Z,14.75
2023-01-27T10:08:32.949Z,15.70
2023-01-27T10:11:26.218Z,15.18
2023-01-27T10:14:07.587Z,15.20
2023-01-27T10:16:41.699Z,14.88
2023-01-27T10:19:55.151Z,14.88
2023-01-27T10:22:45.350Z,14.48
2023-01-27T10:25:32.284Z,12.98
2023-01-27T10:28:11.932Z,13.15
2023-01-27T10:30:58.112Z,13.10
2023-01-27T10:33:48.490Z,12.90
2023-01-27T10:36:51.012Z,12.65
2023-01-27T10:40:01.317Z,13.13
2023-01-27T10:43:02.228Z,12.13
2023-01-27T10:45:45.821Z,11.45
2023-01-27T10:48:33.711Z,11.15
2023-01-27T10:51:24.496Z,10.25
2023-01-27T10:54:13.952Z,9.40
2023-01-27T10:56:57.520Z,9.25
2023-01-27T10:59:42.877Z,7.63
2023-01-27T11:02:09.638Z,7.05
2023-01-27T11:04:43.243Z,6.80
2023-01-27T11:07:17.964Z,7.38
2023-01-27T11:09:55.992Z,5.97
2023-01-27T11:12:35.679Z,6.32
2023-01-27T11:15:16.658Z,6.32
2023-01-27T11:18:17.927Z,6.97
2023-01-27T11:20:54.581Z,6.95
2023-01-27T11:23:27.959Z,9.40
2023-01-27T11:26:28.108Z,9.05
2023-01-27T11:29:20.431Z,8.10
2023-01-27T11:32:16.030Z,6.03
2023-01-27T11:37:24.375Z,5.95
2023-01-27T11:39:51.205Z,6.30
2023-01-27T11:42:18.621Z,6.93
2023-01-27T11:44:45.926Z,7.07
2023-01-27T11:47:35.069Z,8.00
2023-01-27T11:50:04.655Z,8.00
2023-01-27T11:52:32.150Z,8.30
2023-01-27T11:55:20.171Z,8.32
2023-01-27T11:57:58.124Z,8.68
2023-01-27T12:00:38.975Z,8.77
2023-01-27T12:04:04.819Z,9.20
2023-01-27T12:06:49.229Z,9.52
2023-01-27T12:09:41.193Z,10.10
2023-01-27T12:12:13.956Z,9.52
2023-01-27T12:14:56.347Z,10.77
2023-01-27T12:17:42.241Z,9.60
2023-01-27T12:20:43.519Z,10.70
2023-01-27T12:23:30.145Z,9.57
2023-01-27T12:26:02.492Z,8.75
2023-01-27T12:28:37.019Z,9.07
2023-01-27T12:31:31.203Z,9.00
2023-01-27T12:34:07.001Z,8.40
2023-01-27T12:36:41.463Z,8.23
2023-01-27T12:39:30.975Z,8.13
2023-01-27T12:41:58.500Z,8.15
2023-01-27T12:44:29.433Z,8.02
2023-01-27T12:47:25.126Z,6.82
2023-01-27T12:52:21.882Z,6.30
2023-01-27T12:54:51.366Z,5.03
2023-01-27T12:57:21.790Z,5.18
2023-01-27T12:59:56.665Z,4.38
2023-01-27T13:05:01.256Z,5.03
2023-01-27T13:07:45.515Z,4.03
2023-01-27T13:10:27.996Z,3.45
2023-01-27T13:12:58.723Z,3.50
2023-01-27T13:15:31.315Z,2.92
2023-01-27T13:18:00.313Z,3.00
2023-01-27T13:20:32.171Z,3.17
2023-01-27T13:23:16.187Z,2.58
2023-01-27T13:25:50.452Z,2.72
2023-01-27T13:28:42.779Z,2.72
2023-01-27T13:31:43.274Z,2.90
2023-01-27T13:34:36.411Z,2.90
2023-01-27T13:37:40.183Z,3.13
2023-01-27T13:40:30.029Z,2.65
2023-01-27T13:43:33.758Z,2.70
2023-01-27T13:46:32.087Z,3.03
2023-01-27T13:49:05.459Z,2.72
2023-01-27T13:51:33.636Z,2.55
2023-01-27T13:54:04.121Z,2.42
2023-01-27T13:57:29.353Z,2.40
2023-01-27T14:00:18.274Z,2.30
2023-01-27T14:03:00.386Z,2.40
2023-01-27T14:05:39.102Z,2.53
2023-01-27T14:08:45.542Z,2.40
2023-01-27T14:12:14.366Z,2.50
2023-01-27T14:15:46.874Z,2.58
2023-01-27T14:18:30.830Z,3.20
2023-01-27T14:21:41.428Z,2.03
2023-01-27T14:24:38.012Z,2.65
2023-01-27T14:27:29.079Z,2.25
2023-01-27T14:30:24.740Z,2.75
2023-01-27T14:35:50.129Z,1.90
2023-01-27T14:38:42.981Z,2.40
2023-01-27T14:41:34.558Z,2.28
2023-01-27T14:44:44.454Z,2.25
2023-01-27T14:47:53.945Z,1.92
2023-01-27T14:50:27.724Z,1.65
2023-01-27T14:53:45.696Z,2.00
2023-01-27T14:56:56.880Z,2.03
2023-01-27T15:00:10.928Z,1.42
2023-01-27T15:02:53.131Z,1.83
2023-01-27T15:05:29.716Z,2.40
2023-01-27T15:08:20.911Z,2.30
2023-01-27T15:11:06.175Z,2.00
2023-01-27T15:14:17.506Z,2.38
2023-01-27T15:17:32.194Z,4.00
2023-01-27T15:20:29.526Z,4.32
2023-01-27T15:23:45.872Z,2.90
2023-01-27T15:26:15.288Z,3.70
2023-01-27T15:28:43.574Z,2.83
2023-01-27T15:31:19.593Z,2.35
2023-01-27T15:34:04.809Z,2.83
2023-01-27T15:36:38.636Z,2.83
2023-01-27T15:39:11.559Z,2.60
2023-01-27T15:42:03.363Z,3.08
2023-01-27T15:45:01.340Z,1.92
2023-01-27T15:47:32.818Z,1.70
2023-01-27T15:50:18.206Z,1.63
2023-01-27T15:52:48.055Z,2.47
2023-01-27T15:55:30.755Z,2.95
2023-01-27T15:58:35.776Z,3.83
2023-01-27T16:01:08.470Z,2.17
2023-01-27T16:03:44.110Z,2.08
2023-01-27T16:06:23.775Z,2.40
2023-01-27T16:09:03.023Z,2.50
2023-01-27T16:11:29.718Z,2.30
2023-01-27T16:14:11.764Z,2.38
2023-01-27T16:16:51.624Z,1.80
2023-01-27T16:19:29.431Z,1.67
2023-01-27T16:22:01.553Z,1.30
2023-01-27T16:24:48.312Z,1.17
2023-01-27T16:27:34.067Z,1.85
2023-01-27T16:30:06.579Z,2.00
2023-01-27T16:32:41.191Z,1.70
2023-01-27T16:35:19.253Z,1.52
2023-01-27T16:38:21.738Z,1.55
2023-01-27T16:40:55.930Z,1.60
2023-01-27T16:43:40.754Z,1.35
2023-01-27T16:46:45.833Z,1.80
2023-01-27T16:49:21.584Z,2.47
2023-01-27T16:51:58.967Z,2.20
2023-01-27T16:54:33.804Z,2.50
2023-01-27T16:57:04.169Z,2.05
2023-01-27T16:59:37.760Z,3.60
2023-01-27T17:02:21.589Z,2.70
2023-01-27T17:04:53.107Z,2.80
2023-01-27T17:07:20.015Z,2.67
2023-01-27T17:09:53.871Z,2.50
2023-01-27T17:12:36.610Z,2.20
2023-01-27T17:15:37.199Z,2.10
2023-01-27T17:18:11.082Z,2.55
2023-01-27T17:20:41.981Z,1.88
2023-01-27T17:23:29.344Z,3.78
2023-01-27T17:25:56.533Z,11.88
2023-01-27T17:28:27.373Z,15.88
2023-01-27T17:31:07.448Z,19.67
2023-01-27T17:33:36.792Z,18.75
2023-01-27T17:36:10.913Z,17.95
2023-01-27T17:38:50.063Z,12.68
2023-01-27T17:41:37.979Z,13.18
2023-01-27T17:44:14.249Z,11.35
2023-01-27T17:46:41.898Z,10.60
2023-01-27T17:49:16.139Z,9.25
2023-01-27T17:51:51.447Z,6.00
2023-01-27T17:54:38.785Z,6.60
2023-01-27T17:57:32.757Z,5.85
2023-01-27T18:00:04.705Z,7.50
2023-01-27T18:02:36.223Z,7.70
2023-01-27T18:05:16.438Z,7.72
2023-01-27T18:07:43.425Z,7.85
2023-01-27T18:10:37.566Z,8.60
2023-01-27T18:13:19.489Z,7.55
2023-01-27T18:16:19.590Z,7.25
2023-01-27T18:18:47.686Z,10.45
2023-01-27T18:21:16.843Z,9.20
2023-01-27T18:23:56.951Z,8.23
2023-01-27T18:26:38.293Z,8.15
2023-01-27T18:29:22.923Z,9.88
2023-01-27T18:31:59.781Z,6.53
2023-01-27T18:34:31.294Z,13.32
2023-01-27T18:37:03.652Z,9.63
2023-01-27T18:39:39.988Z,10.95
2023-01-27T18:42:28.512Z,10.65
2023-01-27T18:44:56.889Z,9.98
2023-01-27T18:47:33.592Z,9.32
2023-01-27T18:50:25.155Z,11.63
2023-01-27T18:52:53.474Z,9.63
2023-01-27T18:55:23.642Z,9.60
2023-01-27T18:57:59.137Z,10.30
2023-01-27T19:00:37.762Z,7.72
2023-01-27T19:03:12.774Z,7.93
2023-01-27T19:08:09.290Z,9.32
2023-01-27T19:10:36.812Z,9.88
2023-01-27T19:13:04.481Z,10.25
2023-01-27T19:15:37.432Z,10.15
2023-01-27T19:18:26.146Z,9.07
2023-01-27T19:20:53.489Z,9.20
2023-01-27T19:23:21.522Z,9.95
2023-01-27T19:25:54.059Z,9.48
2023-01-27T19:28:38.528Z,11.30
2023-01-27T19:31:07.592Z,11.47
2023-01-27T19:33:37.308Z,15.20
2023-01-27T19:36:26.702Z,14.55
2023-01-27T19:39:02.237Z,12.30
2023-01-27T19:41:29.200Z,14.27
2023-01-27T19:43:56.475Z,12.55
2023-01-27T19:46:23.686Z,11.32
2023-01-27T19:48:50.854Z,8.52
2023-01-27T19:51:19.010Z,8.85
2023-01-27T19:53:46.444Z,8.48
2023-01-27T19:56:17.386Z,6.95
2023-01-27T19:58:51.956Z,7.25
2023-01-27T20:01:21.541Z,7.10
2023-01-27T20:03:49.700Z,9.43
2023-01-27T20:06:29.596Z,9.70
2023-01-27T20:08:59.914Z,9.40
2023-01-27T20:11:30.121Z,9.18
2023-01-27T20:13:58.007Z,9.65
2023-01-27T20:16:26.293Z,11.30
2023-01-27T20:18:54.335Z,16.30
2023-01-27T20:21:21.304Z,19.40
2023-01-27T20:23:48.650Z,15.02
2023-01-27T20:26:16.851Z,13.27
2023-01-27T20:28:44.724Z,13.07
2023-01-27T20:31:22.728Z,12.80
2023-01-27T20:33:50.368Z,12.65
2023-01-27T20:36:22.008Z,12.68
2023-01-27T20:38:49.065Z,13.05
2023-01-27T20:41:20.312Z,12.25
2023-01-27T20:43:47.190Z,12.77
2023-01-27T20:46:17.540Z,11.20
2023-01-27T20:48:44.989Z,12.45
2023-01-27T20:51:15.136Z,12.15
2023-01-27T20:53:47.190Z,12.50
2023-01-27T20:56:23.287Z,15.05
2023-01-27T20:58:51.332Z,15.60
2023-01-27T21:01:23.800Z,14.85
2023-01-27T21:03:51.074Z,14.43
2023-01-27T21:06:20.265Z,14.48
2023-01-27T21:08:50.431Z,12.77
2023-01-27T21:11:20.218Z,15.63
2023-01-27T21:13:48.348Z,14.68
2023-01-27T21:16:15.603Z,14.38
2023-01-27T21:18:44.193Z,14.05
2023-01-27T21:21:23.255Z,13.27
2023-01-27T21:23:50.750Z,14.13
2023-01-27T21:26:17.577Z,14.85
2023-01-27T21:28:44.519Z,14.43
2023-01-27T21:31:18.704Z,14.00
2023-01-27T21:33:46.309Z,13.75
2023-01-27T21:36:13.545Z,14.00
2023-01-27T21:38:41.107Z,13.82
2023-01-27T21:41:12.142Z,11.95
2023-01-27T21:43:57.542Z,13.57
2023-01-27T21:46:24.575Z,12.50
2023-01-27T21:48:51.400Z,13.63
2023-01-27T21:51:18.160Z,13.27
2023-01-27T21:53:44.966Z,14.50
2023-01-27T21:56:11.962Z,12.80
2023-01-27T21:58:39.352Z,16.65
2023-01-27T22:01:10.642Z,15.63
2023-01-27T22:03:38.539Z,15.57
2023-01-27T22:06:07.568Z,16.13
2023-01-27T22:08:35.027Z,16.35
2023-01-27T22:11:07.088Z,16.65
2023-01-27T22:13:34.403Z,17.42
2023-01-27T22:16:01.781Z,17.98
2023-01-27T22:18:29.160Z,17.23
2023-01-27T22:20:56.362Z,17.73
2023-01-27T22:23:24.700Z,15.70
2023-01-27T22:25:53.017Z,17.13
2023-01-27T22:28:23.268Z,15.52
2023-01-27T22:30:50.804Z,15.15
2023-01-27T22:33:17.700Z,15.63
2023-01-27T22:35:44.800Z,14.95
2023-01-27T22:38:11.616Z,15.18
2023-01-27T22:40:38.533Z,16.05
2023-01-27T22:43:09.425Z,14.90
2023-01-27T22:45:40.302Z,14.75
2023-01-27T22:48:09.027Z,16.60
2023-01-27T22:50:37.108Z,14.40
2023-01-27T22:53:05.549Z,16.35
2023-01-27T22:55:32.791Z,17.52
2023-01-27T22:58:00.167Z,17.38
2023-01-27T23:00:27.279Z,17.98
2023-01-27T23:02:54.666Z,16.55
2023-01-27T23:05:21.487Z,13.40
2023-01-27T23:07:48.346Z,14.27
2023-01-27T23:10:16.608Z,14.80
2023-01-27T23:12:43.409Z,15.48
2023-01-27T23:15:10.759Z,16.83
2023-01-27T23:17:37.736Z,16.20
2023-01-27T23:20:05.265Z,16.15
2023-01-27T23:22:32.817Z,15.07
2023-01-27T23:24:59.613Z,15.93
2023-01-27T23:27:28.706Z,14.20
2023-01-27T23:29:55.583Z,14.50
2023-01-27T23:32:22.835Z,15.80
2023-01-27T23:34:50.476Z,14.43
2023-01-27T23:37:17.686Z,16.50
2023-01-27T23:39:48.763Z,18.83
2023-01-27T23:42:17.264Z,16.70
2023-01-27T23:44:44.261Z,18.60
2023-01-27T23:47:13.607Z,18.83
2023-01-27T23:49:40.945Z,16.98
2023-01-27T23:52:08.221Z,18.33
2023-01-27T23:54:34.959Z,19.17
2023-01-27T23:57:01.761Z,16.55
2023-01-27T23:59:28.548Z,16.77
